createdAt,value
2022-10-05T00:01:30.393Z,16.77
2022-10-05T00:04:12.150Z,15.40
2022-10-05T00:06:39.979Z,17.60
2022-10-05T00:09:15.245Z,19.47
2022-10-05T00:11:45.635Z,18.38
2022-10-05T00:14:18.898Z,18.43
2022-10-05T00:16:48.075Z,19.47
2022-10-05T00:19:23.663Z,14.80
2022-10-05T00:21:51.446Z,16.13
2022-10-05T00:24:20.499Z,17.03
2022-10-05T00:26:54.158Z,18.20
2022-10-05T00:29:25.206Z,18.63
2022-10-05T00:31:53.453Z,18.87
2022-10-05T00:34:21.672Z,17.50
2022-10-05T00:36:49.895Z,17.67
2022-10-05T00:39:18.592Z,15.73
2022-10-05T00:42:10.822Z,16.23
2022-10-05T00:44:49.762Z,18.03
2022-10-05T00:47:35.663Z,17.90
2022-10-05T00:50:23.340Z,17.63
2022-10-05T00:53:06.115Z,20.30
2022-10-05T00:55:51.036Z,18.13
2022-10-05T00:58:38.006Z,18.23
2022-10-05T01:01:13.536Z,18.47
2022-10-05T01:04:01.572Z,18.35
2022-10-05T01:06:41.965Z,15.90
2022-10-05T01:09:22.864Z,19.60
2022-10-05T01:12:01.510Z,21.90
2022-10-05T01:14:39.249Z,15.90
2022-10-05T01:17:20.309Z,22.03
2022-10-05T01:20:12.868Z,17.97
2022-10-05T01:23:13.411Z,19.58
2022-10-05T01:25:57.312Z,18.37
2022-10-05T01:28:35.450Z,18.13
2022-10-05T01:31:17.238Z,16.20
2022-10-05T01:33:55.403Z,19.00
2022-10-05T01:36:37.358Z,19.87
2022-10-05T01:39:16.658Z,17.90
2022-10-05T01:41:59.788Z,18.03
2022-10-05T01:44:40.598Z,16.37
2022-10-05T01:47:21.388Z,18.33
2022-10-05T01:50:00.602Z,16.97
2022-10-05T01:52:44.250Z,17.93
2022-10-05T01:55:24.867Z,16.13
2022-10-05T01:58:11.384Z,16.03
2022-10-05T02:00:52.589Z,16.80
2022-10-05T02:03:27.048Z,16.47
2022-10-05T02:06:01.385Z,17.00
2022-10-05T02:08:40.404Z,17.37
2022-10-05T02:11:13.536Z,16.13
2022-10-05T02:13:47.313Z,18.47
2022-10-05T02:16:25.878Z,18.30
2022-10-05T02:19:01.850Z,15.97
2022-10-05T02:21:34.482Z,17.63
2022-10-05T02:24:11.405Z,18.60
2022-10-05T02:26:41.462Z,16.42
2022-10-05T02:29:14.408Z,19.13
2022-10-05T02:31:54.716Z,19.17
2022-10-05T02:34:26.871Z,17.27
2022-10-05T02:37:20.931Z,19.02
2022-10-05T02:40:16.606Z,18.40
2022-10-05T02:42:56.411Z,18.38
2022-10-05T02:45:41.361Z,17.57
2022-10-05T02:48:26.023Z,18.17
2022-10-05T02:51:06.627Z,17.90
2022-10-05T02:53:46.595Z,20.93
2022-10-05T02:56:26.384Z,19.60
2022-10-05T02:59:09.438Z,18.60
2022-10-05T03:01:47.755Z,19.37
2022-10-05T03:04:34.213Z,20.43
2022-10-05T03:07:14.714Z,17.10
2022-10-05T03:10:00.874Z,19.20
2022-10-05T03:12:47.427Z,18.92
2022-10-05T03:15:55.465Z,16.23
2022-10-05T03:18:45.260Z,16.00
2022-10-05T03:21:35.492Z,16.87
2022-10-05T03:24:31.330Z,17.35
2022-10-05T03:27:12.789Z,17.83
2022-10-05T03:29:50.495Z,14.43
2022-10-05T03:32:31.915Z,15.80
2022-10-05T03:35:10.493Z,14.17
2022-10-05T03:37:49.003Z,17.83
2022-10-05T03:40:29.367Z,17.43
2022-10-05T03:43:19.123Z,16.63
2022-10-05T03:45:58.474Z,15.73
2022-10-05T03:48:33.485Z,18.60
2022-10-05T03:53:47.663Z,16.87
2022-10-05T03:56:29.917Z,17.03
2022-10-05T03:59:08.022Z,16.98
2022-10-05T04:01:44.745Z,18.70
2022-10-05T04:04:24.059Z,18.87
2022-10-05T04:06:57.654Z,17.03
2022-10-05T04:09:36.527Z,18.13
2022-10-05T04:12:15.000Z,15.10
2022-10-05T04:14:48.737Z,17.30
2022-10-05T04:17:27.576Z,17.00
2022-10-05T04:20:02.891Z,20.80
2022-10-05T04:22:40.035Z,17.03
2022-10-05T04:25:18.063Z,16.87
2022-10-05T04:27:57.322Z,20.83
2022-10-05T04:30:25.738Z,15.23
2022-10-05T04:33:00.390Z,15.33
2022-10-05T04:35:54.390Z,15.13
2022-10-05T04:38:47.653Z,14.93
2022-10-05T04:41:37.675Z,14.03
2022-10-05T04:44:28.268Z,16.20
2022-10-05T04:47:22.300Z,17.83
2022-10-05T04:50:19.820Z,16.13
2022-10-05T04:53:13.137Z,15.93
2022-10-05T04:55:56.331Z,18.33
2022-10-05T04:58:51.208Z,16.83
2022-10-05T05:01:47.911Z,18.27
2022-10-05T05:05:00.096Z,15.93
2022-10-05T05:07:44.646Z,18.17
2022-10-05T05:10:49.423Z,18.03
2022-10-05T05:13:58.268Z,15.87
2022-10-05T05:16:36.135Z,20.17
2022-10-05T05:19:41.132Z,19.43
2022-10-05T05:22:25.969Z,17.57
2022-10-05T05:25:15.742Z,16.48
2022-10-05T05:27:53.042Z,17.27
2022-10-05T05:30:30.156Z,15.03
2022-10-05T05:33:14.986Z,18.17
2022-10-05T05:36:24.271Z,17.08
2022-10-05T05:39:17.401Z,15.70
2022-10-05T05:42:01.800Z,15.53
2022-10-05T05:44:40.056Z,16.40
2022-10-05T05:47:20.464Z,14.73
2022-10-05T05:50:16.556Z,17.23
2022-10-05T05:52:51.517Z,16.07
2022-10-05T05:55:29.959Z,17.13
2022-10-05T05:58:11.007Z,16.20
2022-10-05T06:00:46.888Z,17.90
2022-10-05T06:03:24.304Z,15.77
2022-10-05T06:05:57.949Z,14.27
2022-10-05T06:08:39.211Z,16.63
2022-10-05T06:11:22.959Z,16.27
2022-10-05T06:13:51.857Z,18.47
2022-10-05T06:16:28.373Z,17.85
2022-10-05T06:19:05.264Z,14.83
2022-10-05T06:21:43.205Z,15.73
2022-10-05T06:24:21.653Z,16.48
2022-10-05T06:27:23.304Z,15.23
2022-10-05T06:30:07.007Z,13.70
2022-10-05T06:33:07.696Z,13.70
2022-10-05T06:35:57.660Z,13.43
2022-10-05T06:38:53.501Z,15.60
2022-10-05T06:41:40.524Z,14.77
2022-10-05T06:44:16.630Z,14.05
2022-10-05T06:47:01.669Z,13.30
2022-10-05T06:50:04.118Z,12.80
2022-10-05T06:53:29.291Z,13.45
2022-10-05T06:56:09.318Z,13.07
2022-10-05T06:59:09.391Z,14.23
2022-10-05T07:01:55.792Z,12.07
2022-10-05T07:05:04.374Z,12.23
2022-10-05T07:07:44.981Z,12.38
2022-10-05T07:10:31.489Z,13.20
2022-10-05T07:13:34.631Z,11.02
2022-10-05T07:16:22.658Z,12.32
2022-10-05T07:19:10.269Z,12.10
2022-10-05T07:21:58.039Z,10.02
2022-10-05T07:24:32.822Z,13.05
2022-10-05T07:27:21.015Z,15.00
2022-10-05T07:29:59.257Z,16.00
2022-10-05T07:32:36.681Z,15.48
2022-10-05T07:35:36.827Z,17.45
2022-10-05T07:38:14.873Z,10.30
2022-10-05T07:40:53.603Z,11.45
2022-10-05T07:44:00.932Z,11.57
2022-10-05T07:46:43.609Z,10.55
2022-10-05T07:49:24.375Z,12.05
2022-10-05T07:52:00.351Z,10.60
2022-10-05T07:54:40.473Z,9.23
2022-10-05T07:57:22.133Z,12.10
2022-10-05T08:00:01.769Z,11.80
2022-10-05T08:02:49.016Z,10.32
2022-10-05T08:05:26.408Z,6.38
2022-10-05T08:08:06.591Z,11.05
2022-10-05T08:10:42.837Z,8.25
2022-10-05T08:13:25.441Z,12.27
2022-10-05T08:16:03.723Z,9.85
2022-10-05T08:18:56.446Z,9.18
2022-10-05T08:21:35.713Z,11.43
2022-10-05T08:24:15.603Z,11.35
2022-10-05T08:26:55.363Z,13.25
2022-10-05T08:29:32.813Z,12.02
2022-10-05T08:32:06.349Z,14.35
2022-10-05T08:34:45.895Z,11.73
2022-10-05T08:37:21.586Z,9.43
2022-10-05T08:40:00.507Z,11.20
2022-10-05T08:43:01.919Z,6.03
2022-10-05T08:45:50.974Z,7.70
2022-10-05T08:48:59.829Z,8.68
2022-10-05T08:52:21.490Z,8.68
2022-10-05T08:55:28.050Z,6.78
2022-10-05T08:58:36.089Z,7.88
2022-10-05T09:01:19.172Z,7.25
2022-10-05T09:04:19.689Z,8.63
2022-10-05T09:07:40.536Z,8.02
2022-10-05T09:11:00.928Z,6.30
2022-10-05T09:14:07.106Z,6.55
2022-10-05T09:17:04.969Z,7.30
2022-10-05T09:20:10.401Z,6.90
2022-10-05T09:23:14.474Z,8.13
2022-10-05T09:25:57.388Z,7.93
2022-10-05T09:28:36.463Z,5.75
2022-10-05T09:31:31.757Z,6.30
2022-10-05T09:34:52.016Z,5.82
2022-10-05T09:38:08.285Z,5.82
2022-10-05T09:41:25.450Z,6.40
2022-10-05T09:44:33.791Z,5.55
2022-10-05T09:47:39.012Z,6.50
2022-10-05T09:50:49.676Z,5.07
2022-10-05T09:53:54.069Z,6.72
2022-10-05T09:56:57.304Z,6.15
2022-10-05T10:00:21.569Z,4.80
2022-10-05T10:03:20.999Z,6.70
2022-10-05T10:06:28.697Z,6.03
2022-10-05T10:09:26.869Z,4.60
2022-10-05T10:12:29.948Z,7.72
2022-10-05T10:15:40.266Z,4.82
2022-10-05T10:18:29.585Z,4.32
2022-10-05T10:21:33.037Z,5.20
2022-10-05T10:24:30.645Z,4.82
2022-10-05T10:27:20.002Z,6.85
2022-10-05T10:30:27.600Z,5.05
2022-10-05T10:33:23.194Z,5.45
2022-10-05T10:36:06.070Z,5.50
2022-10-05T10:38:58.632Z,3.85
2022-10-05T10:42:10.183Z,5.22
2022-10-05T10:45:05.582Z,4.95
2022-10-05T10:47:50.337Z,4.75
2022-10-05T10:50:55.393Z,6.85
2022-10-05T10:54:04.310Z,4.47
2022-10-05T10:57:06.048Z,5.05
2022-10-05T11:00:23.399Z,5.22
2022-10-05T11:03:41.788Z,5.38
2022-10-05T11:06:50.331Z,5.80
2022-10-05T11:09:54.772Z,6.03
2022-10-05T11:13:12.362Z,6.97
2022-10-05T11:16:26.130Z,5.55
2022-10-05T11:19:40.517Z,5.85
2022-10-05T11:22:50.158Z,4.28
2022-10-05T11:25:56.061Z,6.47
2022-10-05T11:28:56.467Z,6.18
2022-10-05T11:32:12.372Z,4.80
2022-10-05T11:35:31.009Z,6.30
2022-10-05T11:38:21.838Z,4.70
2022-10-05T11:41:20.620Z,7.97
2022-10-05T11:44:38.621Z,3.67
2022-10-05T11:47:20.030Z,4.22
2022-10-05T11:49:59.159Z,4.10
2022-10-05T11:52:40.373Z,5.28
2022-10-05T11:55:24.519Z,4.22
2022-10-05T11:57:58.086Z,3.05
2022-10-05T12:00:36.362Z,8.13
2022-10-05T12:03:30.223Z,3.80
2022-10-05T12:06:22.036Z,3.70
2022-10-05T12:09:10.829Z,3.90
2022-10-05T12:12:03.569Z,8.15
2022-10-05T12:14:49.272Z,7.22
2022-10-05T12:17:29.641Z,4.82
2022-10-05T12:20:05.394Z,3.70
2022-10-05T12:22:41.959Z,6.93
2022-10-05T12:25:26.107Z,3.85
2022-10-05T12:28:00.063Z,4.30
2022-10-05T12:30:53.998Z,4.60
2022-10-05T12:33:34.244Z,4.43
2022-10-05T12:36:11.142Z,3.90
2022-10-05T12:38:47.015Z,4.40
2022-10-05T12:41:25.350Z,4.90
2022-10-05T12:44:13.404Z,3.67
2022-10-05T12:46:58.417Z,5.10
2022-10-05T12:49:57.607Z,3.33
2022-10-05T12:52:46.911Z,3.13
2022-10-05T12:55:26.157Z,4.95
2022-10-05T12:58:13.103Z,3.45
2022-10-05T13:00:57.183Z,3.80
2022-10-05T13:03:30.290Z,6.40
2022-10-05T13:06:15.633Z,4.72
2022-10-05T13:11:33.347Z,3.85
2022-10-05T13:14:17.881Z,6.93
2022-10-05T13:16:55.382Z,4.70
2022-10-05T13:19:39.991Z,3.78
2022-10-05T13:22:27.295Z,4.30
2022-10-05T13:25:17.472Z,3.88
2022-10-05T13:27:51.991Z,3.40
2022-10-05T13:30:22.009Z,5.40
2022-10-05T13:33:00.152Z,2.88
2022-10-05T13:35:44.338Z,3.72
2022-10-05T13:38:36.665Z,5.95
2022-10-05T13:41:23.763Z,4.30
2022-10-05T13:44:13.864Z,3.45
2022-10-05T13:46:49.142Z,5.05
2022-10-05T13:49:28.831Z,4.30
2022-10-05T13:52:11.953Z,3.60
2022-10-05T13:54:50.862Z,5.00
2022-10-05T13:57:45.034Z,3.45
2022-10-05T14:00:19.460Z,3.63
2022-10-05T14:02:53.567Z,4.03
2022-10-05T14:05:24.699Z,3.83
2022-10-05T14:07:56.481Z,4.75
2022-10-05T14:10:39.241Z,4.50
2022-10-05T14:13:22.328Z,3.90
2022-10-05T14:16:20.498Z,3.45
2022-10-05T14:18:55.956Z,3.47
2022-10-05T14:21:26.308Z,4.53
2022-10-05T14:23:57.134Z,3.45
2022-10-05T14:26:35.795Z,3.13
2022-10-05T14:29:17.937Z,2.80
2022-10-05T14:31:55.230Z,2.85
2022-10-05T14:34:31.913Z,2.92
2022-10-05T14:37:09.941Z,3.78
2022-10-05T14:39:42.405Z,3.97
2022-10-05T14:42:19.189Z,2.55
2022-10-05T14:45:00.147Z,4.35
2022-10-05T14:47:32.009Z,3.50
2022-10-05T14:50:16.655Z,4.50
2022-10-05T14:52:59.317Z,4.65
2022-10-05T14:56:17.055Z,5.18
2022-10-05T14:59:29.737Z,3.72
2022-10-05T15:02:28.945Z,4.45
2022-10-05T15:05:03.631Z,3.50
2022-10-05T15:07:42.482Z,2.55
2022-10-05T15:10:32.674Z,4.95
2022-10-05T15:13:11.877Z,2.85
2022-10-05T15:15:49.839Z,2.83
2022-10-05T15:18:36.230Z,3.50
2022-10-05T15:21:33.449Z,3.42
2022-10-05T15:24:09.334Z,3.53
2022-10-05T15:26:50.962Z,3.78
2022-10-05T15:29:41.997Z,2.47
2022-10-05T15:32:41.441Z,3.25
2022-10-05T15:35:36.929Z,3.22
2022-10-05T15:38:21.150Z,2.97
2022-10-05T15:41:03.575Z,2.33
2022-10-05T15:43:47.457Z,4.85
2022-10-05T15:46:23.559Z,5.32
2022-10-05T15:49:16.149Z,3.30
2022-10-05T15:52:00.522Z,3.28
2022-10-05T15:54:59.297Z,4.03
2022-10-05T15:57:43.302Z,5.05
2022-10-05T16:00:14.696Z,3.17
2022-10-05T16:02:52.138Z,2.53
2022-10-05T16:06:06.400Z,3.80
2022-10-05T16:09:10.303Z,2.78
2022-10-05T16:11:58.426Z,3.28
2022-10-05T16:14:59.750Z,3.00
2022-10-05T16:17:50.350Z,3.15
2022-10-05T16:20:36.464Z,3.28
2022-10-05T16:23:21.282Z,3.17
2022-10-05T16:26:09.586Z,2.75
2022-10-05T16:28:55.266Z,4.63
2022-10-05T16:31:31.596Z,3.78
2022-10-05T16:34:17.089Z,4.10
2022-10-05T16:36:59.332Z,2.65
2022-10-05T16:39:51.484Z,4.30
2022-10-05T16:42:49.944Z,2.80
2022-10-05T16:45:44.764Z,3.08
2022-10-05T16:48:24.622Z,3.42
2022-10-05T16:51:25.467Z,3.65
2022-10-05T16:54:09.941Z,4.95
2022-10-05T16:56:46.144Z,4.65
2022-10-05T17:00:03.783Z,4.63
2022-10-05T17:02:53.044Z,3.83
2022-10-05T17:05:47.587Z,3.00
2022-10-05T17:09:10.515Z,5.22
2022-10-05T17:11:58.518Z,5.15
2022-10-05T17:14:50.130Z,3.40
2022-10-05T17:17:52.940Z,5.63
2022-10-05T17:20:42.969Z,5.03
2022-10-05T17:23:50.483Z,3.40
2022-10-05T17:26:56.658Z,4.68
2022-10-05T17:29:49.768Z,3.65
2022-10-05T17:32:37.201Z,5.78
2022-10-05T17:35:19.295Z,4.50
2022-10-05T17:38:15.045Z,2.83
2022-10-05T17:41:20.651Z,4.63
2022-10-05T17:44:19.513Z,3.47
2022-10-05T17:46:51.701Z,7.93
2022-10-05T17:49:27.358Z,4.97
2022-10-05T17:52:23.705Z,5.45
2022-10-05T17:55:40.475Z,4.82
2022-10-05T17:59:01.346Z,6.90
2022-10-05T18:01:45.306Z,3.67
2022-10-05T18:05:33.341Z,6.03
2022-10-05T18:08:48.427Z,3.05
2022-10-05T18:11:40.747Z,5.55
2022-10-05T18:14:19.649Z,5.55
2022-10-05T18:17:00.072Z,3.55
2022-10-05T18:19:32.224Z,4.78
2022-10-05T18:22:26.248Z,4.22
2022-10-05T18:25:08.145Z,4.35
2022-10-05T18:28:19.496Z,2.10
2022-10-05T18:31:16.405Z,2.72
2022-10-05T18:34:13.621Z,3.53
2022-10-05T18:37:12.923Z,3.70
2022-10-05T18:40:17.801Z,4.75
2022-10-05T18:43:02.244Z,3.35
2022-10-05T18:45:42.448Z,4.55
2022-10-05T18:48:28.051Z,3.50
2022-10-05T18:51:07.523Z,2.40
2022-10-05T18:53:47.230Z,3.15
2022-10-05T18:56:28.634Z,3.53
2022-10-05T18:59:19.632Z,4.20
2022-10-05T19:02:08.229Z,3.47
2022-10-05T19:04:57.460Z,4.43
2022-10-05T19:07:43.749Z,2.92
2022-10-05T19:10:28.897Z,2.95
2022-10-05T19:13:17.795Z,4.35
2022-10-05T19:16:00.444Z,5.32
2022-10-05T19:18:57.183Z,3.55
2022-10-05T19:21:40.398Z,4.25
2022-10-05T19:24:31.240Z,2.25
2022-10-05T19:27:38.440Z,4.53
2022-10-05T19:30:22.959Z,4.20
2022-10-05T19:33:21.535Z,4.60
2022-10-05T19:36:11.529Z,3.80
2022-10-05T19:39:05.887Z,6.03
2022-10-05T19:41:54.781Z,6.15
2022-10-05T19:44:47.461Z,3.95
2022-10-05T19:47:35.321Z,3.80
2022-10-05T19:50:28.005Z,4.18
2022-10-05T19:53:16.907Z,4.78
2022-10-05T19:55:49.720Z,3.30
2022-10-05T19:58:21.749Z,3.65
2022-10-05T20:00:57.454Z,4.35
2022-10-05T20:03:29.298Z,3.42
2022-10-05T20:05:59.582Z,3.65
2022-10-05T20:08:39.345Z,4.28
2022-10-05T20:11:16.115Z,3.53
2022-10-05T20:13:46.981Z,5.22
2022-10-05T20:16:47.286Z,4.22
2022-10-05T20:20:20.482Z,4.40
2022-10-05T20:22:49.699Z,4.40
2022-10-05T20:25:33.368Z,3.90
2022-10-05T20:28:02.918Z,4.40
2022-10-05T20:30:34.083Z,3.65
2022-10-05T20:33:10.307Z,4.60
2022-10-05T20:35:38.853Z,4.05
2022-10-05T20:38:06.628Z,4.35
2022-10-05T20:40:37.284Z,4.88
2022-10-05T20:43:08.067Z,3.22
2022-10-05T20:45:36.433Z,4.72
2022-10-05T20:48:05.915Z,5.13
2022-10-05T20:50:34.072Z,3.72
2022-10-05T20:53:01.820Z,4.45
2022-10-05T20:55:31.196Z,5.28
2022-10-05T20:58:02.210Z,5.07
2022-10-05T21:00:53.320Z,4.95
2022-10-05T21:03:22.795Z,6.25
2022-10-05T21:05:50.625Z,4.43
2022-10-05T21:08:18.816Z,3.60
2022-10-05T21:10:47.012Z,5.00
2022-10-05T21:13:14.792Z,4.60
2022-10-05T21:15:42.672Z,4.47
2022-10-05T21:18:10.820Z,4.95
2022-10-05T21:20:41.338Z,4.85
2022-10-05T21:23:09.086Z,6.03
2022-10-05T21:25:39.118Z,3.22
2022-10-05T21:28:09.079Z,4.70
2022-10-05T21:30:36.981Z,4.07
2022-10-05T21:33:04.740Z,4.40
2022-10-05T21:35:32.939Z,6.18
2022-10-05T21:38:02.125Z,4.15
2022-10-05T21:40:30.162Z,5.28
2022-10-05T21:42:58.380Z,6.50
2022-10-05T21:45:29.588Z,5.47
2022-10-05T21:47:57.901Z,5.32
2022-10-05T21:50:25.877Z,4.90
2022-10-05T21:52:54.752Z,4.68
2022-10-05T21:55:24.236Z,4.13
2022-10-05T21:57:52.438Z,4.90
2022-10-05T22:00:20.591Z,4.03
2022-10-05T22:02:49.524Z,3.97
2022-10-05T22:05:18.140Z,3.28
2022-10-05T22:07:46.058Z,3.28
2022-10-05T22:10:14.745Z,6.00
2022-10-05T22:12:46.243Z,5.57
2022-10-05T22:15:14.684Z,4.60
2022-10-05T22:17:43.265Z,2.80
2022-10-05T22:20:14.441Z,3.92
2022-10-05T22:22:42.279Z,1.73
2022-10-05T22:25:17.398Z,1.98
2022-10-05T22:27:49.110Z,2.63
2022-10-05T22:30:17.807Z,1.95
2022-10-05T22:32:45.625Z,2.75
2022-10-05T22:35:13.630Z,1.95
2022-10-05T22:37:41.419Z,3.15
2022-10-05T22:40:11.440Z,0.63
2022-10-05T22:42:40.515Z,2.05
2022-10-05T22:45:10.279Z,2.00
2022-10-05T22:47:38.041Z,1.92
2022-10-05T22:50:07.587Z,1.90
2022-10-05T22:52:35.415Z,2.15
2022-10-05T22:55:03.675Z,1.93
2022-10-05T22:57:38.036Z,1.60
2022-10-05T23:00:10.378Z,2.90
2022-10-05T23:02:39.839Z,2.40
2022-10-05T23:05:10.812Z,0.73
2022-10-05T23:07:41.831Z,2.43
2022-10-05T23:10:14.660Z,3.43
2022-10-05T23:12:43.591Z,1.80
2022-10-05T23:15:13.348Z,2.67
2022-10-05T23:17:41.354Z,4.13
2022-10-05T23:20:10.317Z,3.37
2022-10-05T23:22:38.902Z,4.57
2022-10-05T23:25:08.690Z,2.38
2022-10-05T23:27:38.310Z,3.47
2022-10-05T23:30:10.261Z,4.13
2022-10-05T23:32:42.098Z,4.07
2022-10-05T23:35:13.167Z,2.13
2022-10-05T23:37:44.043Z,3.87
2022-10-05T23:40:14.271Z,2.70
2022-10-05T23:42:42.659Z,2.70
2022-10-05T23:45:12.199Z,2.97
2022-10-05T23:47:41.541Z,2.83
2022-10-05T23:50:10.082Z,3.15
2022-10-05T23:52:37.965Z,2.93
2022-10-05T23:55:07.284Z,3.97
2022-10-05T23:57:35.283Z,4.77
